Mykonos — ZDJA6 — position and weather

sailwx.info

Track history (hours):
 
Tides and Currents Weather Stations Pressure Air Temp Water Temp Dewpoint Dewpoint Depression Visibility Wind Speed Wind Dir Waves Ship Positions

Mykonos

Last reported at 2017-Sep-26 05:34 UTC. Time now 2017-Sep-26 11:08 UTC.
Position N 36°05' W 005°14'.

Length 91 m; draft 4.5 m.

Type: Tanker. MMSI: 236502000.

Date/timePositionNaut miles runAvg speedWind from/ knotsBaromVisibWave heightAir tempDewpointWater temp
2017-Sep-26 05:34N 36°05' W 005°14'0 1.6
2017-Sep-26 05:30N 36°05' W 005°14'3 6.6
2017-Sep-26 05:00N 36°05' W 005°18'5 4.6
2017-Sep-26 03:52N 36°09' W 005°22'3 5.3
2017-Sep-26 03:15N 36°05' W 005°22'3 7.4
2017-Sep-26 02:53N 36°03' W 005°21'3 9.2
2017-Sep-26 02:30N 35°60' W 005°20'612.8
2017-Sep-26 02:00N 35°58' W 005°28'299 9.9
2017-Sep-24 19:41N 32°44' W 010°04'2 9.5
2017-Sep-24 19:30N 32°43' W 010°06'11 9.5
2017-Sep-24 18:20N 32°35' W 010°15'4 9.7
2017-Sep-24 17:56N 32°32' W 010°18'10 9.7
2017-Sep-24 16:56N 32°25' W 010°26'5 9.5
2017-Sep-24 16:26N 32°22' W 010°30'4 9.6
2017-Sep-24 16:00N 32°19' W 010°34'39 9.4
2017-Sep-24 11:50N 31°48' W 011°02'29 9.1
2017-Sep-24 08:39N 31°28' W 011°27'3 8.9
2017-Sep-24 08:21N 31°26' W 011°29'9 9.1
2017-Sep-24 07:23N 31°20' W 011°36'10 9.0
2017-Sep-24 06:20N 31°13' W 011°45'3 9.2
2017-Sep-24 06:00N 31°11' W 011°47'7 9.5
2017-Sep-24 05:16N 31°06' W 011°53'3 9.4
2017-Sep-24 05:00N 31°04' W 011°55'6 9.6
2017-Sep-24 04:21N 31°00' W 012°00'3 9.4
2017-Sep-24 03:59N 30°58' W 012°03'5 9.1
2017-Sep-24 03:28N 30°54' W 012°07'8 8.8
2017-Sep-24 02:31N 30°48' W 012°14'0 8.7
2017-Sep-24 02:30N 30°48' W 012°14'5 8.9
2017-Sep-24 01:58N 30°45' W 012°18'4 9.0
2017-Sep-24 01:30N 30°42' W 012°21'4 8.7
2017-Sep-24 01:00N 30°39' W 012°25'4 8.4
2017-Sep-24 00:30N 30°36' W 012°28'4 8.4
2017-Sep-23 23:59N 30°33' W 012°32'5 8.2
2017-Sep-23 23:26N 30°30' W 012°36'7 8.1
2017-Sep-23 22:35N 30°25' W 012°41'1 7.7
2017-Sep-23 22:27N 30°24' W 012°42'4 7.9
2017-Sep-23 22:00N 30°22' W 012°45'5 7.9
2017-Sep-23 21:19N 30°18' W 012°50'3 7.7
2017-Sep-23 20:55N 30°16' W 012°52'9 7.4
2017-Sep-23 19:46N 30°10' W 012°59'176 4.2
2017-Sep-22 01:42N 28°08' W 015°25'0 0.0
2017-Sep-22 01:24N 28°08' W 015°25'0 0.0
2017-Sep-22 00:54N 28°08' W 015°25'0 0.0
2017-Sep-22 00:27N 28°08' W 015°25'0 0.0
2017-Sep-21 23:57N 28°08' W 015°25'0 0.0
2017-Sep-21 23:30N 28°08' W 015°25'0 0.0
2017-Sep-21 23:00N 28°08' W 015°25'0 0.0
2017-Sep-21 22:27N 28°08' W 015°25'0 0.0
2017-Sep-21 21:57N 28°08' W 015°25'0 0.0
2017-Sep-21 21:30N 28°08' W 015°25'0 0.0
2017-Sep-21 21:00N 28°08' W 015°25'0 0.0
2017-Sep-21 20:27N 28°08' W 015°25'0 0.0
2017-Sep-21 20:00N 28°08' W 015°25'0 0.0
2017-Sep-21 19:30N 28°08' W 015°25'0 0.0
2017-Sep-21 19:00N 28°08' W 015°25'0 0.0
2017-Sep-21 18:18N 28°08' W 015°25'0 0.0
2017-Sep-21 18:00N 28°08' W 015°25'0 0.0
2017-Sep-21 17:30N 28°08' W 015°25'0 0.0
2017-Sep-21 16:51N 28°08' W 015°25'0 0.0
2017-Sep-21 16:21N 28°08' W 015°25'0 0.0
2017-Sep-21 15:51N 28°08' W 015°25'0 0.0
2017-Sep-21 15:21N 28°08' W 015°25'0 0.0
2017-Sep-21 14:54N 28°08' W 015°25'0 0.1
2017-Sep-21 14:30N 28°08' W 015°25'0 0.7
2017-Sep-21 13:49N 28°09' W 015°25'0 0.0
2017-Sep-21 13:19N 28°09' W 015°25'0 0.0
2017-Sep-21 12:52N 28°09' W 015°25'0 0.0
2017-Sep-21 12:22N 28°09' W 015°25'0 0.0
2017-Sep-21 11:52N 28°09' W 015°25'0 0.0
2017-Sep-21 11:22N 28°09' W 015°25'0 0.0
2017-Sep-21 10:49N 28°09' W 015°25'0 0.0
2017-Sep-21 10:22N 28°09' W 015°25'0 0.0
2017-Sep-21 09:55N 28°09' W 015°25'0 0.0
2017-Sep-21 09:25N 28°09' W 015°25'0 0.0
2017-Sep-21 08:40N 28°09' W 015°25'0 0.0
2017-Sep-21 08:25N 28°09' W 015°25'0 0.0
2017-Sep-21 07:55N 28°09' W 015°25'0 0.0
2017-Sep-21 07:28N 28°09' W 015°25'0 0.0
2017-Sep-21 06:58N 28°09' W 015°25'0 0.0
2017-Sep-21 06:28N 28°09' W 015°25'0 0.0
2017-Sep-21 05:55N 28°09' W 015°25'0 0.0
2017-Sep-21 05:28N 28°09' W 015°25'0 0.0
2017-Sep-21 04:43N 28°09' W 015°25'0 0.0
2017-Sep-21 04:25N 28°09' W 015°25'0 0.0
2017-Sep-21 04:01N 28°09' W 015°25'0 0.0
2017-Sep-21 03:31N 28°09' W 015°25'0 0.0
2017-Sep-21 03:01N 28°09' W 015°25'0 0.0
2017-Sep-21 02:16N 28°09' W 015°25'0 0.0
2017-Sep-21 01:58N 28°09' W 015°25'0 0.0
2017-Sep-21 01:19N 28°09' W 015°25'0 0.0
2017-Sep-21 01:01N 28°09' W 015°25'0 0.0
2017-Sep-21 00:31N 28°09' W 015°25'0 0.0
2017-Sep-21 00:01N 28°09' W 015°25'0 0.0
2017-Sep-20 23:31N 28°09' W 015°25'0 0.0
2017-Sep-20 23:01N 28°09' W 015°25'0 0.0
2017-Sep-20 22:22N 28°09' W 015°25'0 0.0
2017-Sep-20 21:52N 28°09' W 015°25'0 0.0
2017-Sep-20 21:31N 28°09' W 015°25'0 0.0
2017-Sep-20 20:52N 28°09' W 015°25'0 0.0
2017-Sep-20 20:22N 28°09' W 015°25'0 0.0
2017-Sep-20 19:52N 28°09' W 015°25'0 0.0
2017-Sep-20 19:25N 28°09' W 015°25'0 0.0
2017-Sep-20 18:55N 28°09' W 015°25'0 0.0
2017-Sep-20 18:25N 28°09' W 015°25'0 0.0
2017-Sep-20 17:55N 28°09' W 015°25'0 0.0
2017-Sep-20 17:25N 28°09' W 015°25'0 0.1
2017-Sep-20 17:00N 28°09' W 015°25'3 6.3
2017-Sep-20 16:30N 28°06' W 015°24'0 0.0
2017-Sep-20 15:57N 28°06' W 015°24'0 0.0
2017-Sep-20 15:24N 28°06' W 015°24'0 0.0
2017-Sep-20 14:57N 28°06' W 015°24'0 0.0
2017-Sep-20 14:00N 28°06' W 015°24'0 0.0
2017-Sep-20 13:30N 28°06' W 015°24'0 0.1
2017-Sep-20 13:00N 28°06' W 015°24'0 0.0
2017-Sep-20 12:30N 28°06' W 015°24'0 0.0
2017-Sep-20 12:00N 28°06' W 015°24'0 0.0
2017-Sep-20 11:30N 28°06' W 015°24'3 5.1
2017-Sep-20 11:01N 28°08' W 015°25'0 0.5
2017-Sep-20 10:28N 28°08' W 015°25'0 0.0
2017-Sep-20 09:58N 28°08' W 015°25'0 0.0
2017-Sep-20 09:28N 28°08' W 015°25'0 0.0
2017-Sep-20 08:58N 28°08' W 015°25'0 0.0
2017-Sep-20 08:28N 28°08' W 015°25'0 0.0
2017-Sep-20 07:49N 28°08' W 015°25'0 0.0
2017-Sep-20 07:19N 28°08' W 015°25'0 0.0
2017-Sep-20 06:49N 28°08' W 015°25'0 0.0
2017-Sep-20 06:16N 28°08' W 015°25'0 0.0
2017-Sep-20 05:49N 28°08' W 015°25'0 0.0
2017-Sep-20 05:22N 28°08' W 015°25'0 0.0
2017-Sep-20 04:52N 28°08' W 015°25'0 0.0
2017-Sep-20 04:22N 28°08' W 015°25'0 0.0
2017-Sep-20 03:52N 28°08' W 015°25'0 0.0
2017-Sep-20 03:22N 28°08' W 015°25'0 0.0
2017-Sep-20 02:52N 28°08' W 015°25'0 0.0
2017-Sep-20 02:25N 28°08' W 015°25'0 0.0
2017-Sep-20 01:52N 28°08' W 015°25'0 0.0
2017-Sep-20 01:22N 28°08' W 015°25'0 0.0
2017-Sep-20 01:00N 28°08' W 015°25'0 0.7
2017-Sep-20 00:22N 28°09' W 015°25'0 0.0
2017-Sep-19 23:52N 28°09' W 015°25'0 0.0
2017-Sep-19 23:22N 28°09' W 015°25'0 0.0
2017-Sep-19 22:49N 28°09' W 015°25'0 0.0
2017-Sep-19 22:26N 28°09' W 015°25'0 1.0
2017-Sep-19 21:58N 28°08' W 015°25'0 0.0
2017-Sep-19 21:28N 28°08' W 015°25'0 0.0
2017-Sep-19 20:46N 28°08' W 015°25'0 0.0
2017-Sep-19 20:28N 28°08' W 015°25'0 0.0
2017-Sep-19 19:54N 28°08' W 015°25'1 1.6
2017-Sep-19 19:30N 28°08' W 015°25'1 1.9
2017-Sep-19 18:51N 28°08' W 015°24'0 0.0
2017-Sep-19 18:30N 28°08' W 015°24'0 0.0
2017-Sep-19 18:00N 28°08' W 015°24'0 0.0
2017-Sep-19 17:21N 28°08' W 015°24'0 0.0
2017-Sep-19 16:51N 28°08' W 015°24'0 0.0
2017-Sep-19 16:24N 28°08' W 015°24'0 0.0
2017-Sep-19 15:54N 28°08' W 015°24'0 0.0
2017-Sep-19 15:24N 28°08' W 015°24'0 0.0
2017-Sep-19 14:54N 28°08' W 015°24'0 0.0
2017-Sep-19 14:24N 28°08' W 015°24'0 0.0
2017-Sep-19 13:51N 28°08' W 015°24'0 0.0
2017-Sep-19 13:24N 28°08' W 015°24'0 0.1
2017-Sep-19 12:54N 28°08' W 015°24'0 0.0
2017-Sep-19 12:27N 28°08' W 015°24'0 0.0
2017-Sep-19 11:57N 28°08' W 015°24'0 0.0
2017-Sep-19 11:30N 28°08' W 015°24'1 2.2
2017-Sep-19 11:00N 28°07' W 015°25'0 0.3
2017-Sep-19 10:29N 28°08' W 015°25'0 0.1
2017-Sep-19 09:29N 28°07' W 015°25'0 0.1
2017-Sep-19 08:59N 28°07' W 015°25'0 0.0
2017-Sep-19 08:29N 28°07' W 015°25'0 0.2
2017-Sep-19 08:01N 28°07' W 015°25'1 1.7
2017-Sep-19 07:19N 28°09' W 015°25'0 0.0
2017-Sep-19 06:49N 28°09' W 015°25'0 0.0
2017-Sep-19 06:22N 28°09' W 015°25'0 0.0
2017-Sep-19 05:55N 28°09' W 015°25'0 0.0
2017-Sep-19 05:25N 28°09' W 015°25'0 0.0
2017-Sep-19 04:55N 28°09' W 015°25'0 0.0
2017-Sep-19 04:25N 28°09' W 015°25'0 0.0
2017-Sep-19 03:55N 28°09' W 015°25'0 0.0
2017-Sep-19 03:25N 28°09' W 015°25'0 0.0
2017-Sep-19 02:58N 28°09' W 015°25'0 0.0
2017-Sep-19 02:28N 28°09' W 015°25'0 0.0
2017-Sep-19 01:58N 28°09' W 015°25'0 0.0
2017-Sep-19 01:10N 28°09' W 015°25'0 0.0
2017-Sep-19 01:00N 28°09' W 015°25'3 5.7
2017-Sep-19 00:30N 28°06' W 015°24'0 0.5
2017-Sep-18 23:54N 28°06' W 015°24'0 0.0
2017-Sep-18 23:24N 28°06' W 015°24'0 0.0
2017-Sep-18 22:54N 28°06' W 015°24'0 0.0
2017-Sep-18 22:24N 28°06' W 015°24'0 0.0
2017-Sep-18 21:57N 28°06' W 015°24'0 0.1
2017-Sep-18 21:21N 28°06' W 015°24'0 0.0
2017-Sep-18 20:57N 28°06' W 015°24'0 0.1
2017-Sep-18 20:27N 28°06' W 015°24'0 0.1
2017-Sep-18 19:57N 28°06' W 015°24'0 0.1
2017-Sep-18 19:27N 28°06' W 015°24'0 0.1
2017-Sep-18 19:00N 28°06' W 015°24'0 0.0
2017-Sep-18 18:30N 28°06' W 015°24'0 0.0
2017-Sep-18 18:00N 28°06' W 015°24'0 0.1
2017-Sep-18 17:30N 28°06' W 015°24'0 0.2
2017-Sep-18 17:00N 28°06' W 015°24'3 6.2
2017-Sep-18 16:31N 28°09' W 015°25'0 0.2
2017-Sep-18 15:58N 28°09' W 015°25'0 0.0
2017-Sep-18 15:28N 28°09' W 015°25'0 0.0
2017-Sep-18 14:49N 28°09' W 015°25'0 0.0
2017-Sep-18 14:19N 28°09' W 015°25'0 0.0
2017-Sep-18 13:49N 28°09' W 015°25'0 0.0
2017-Sep-18 13:22N 28°09' W 015°25'0 0.0
2017-Sep-18 12:52N 28°09' W 015°25'0 0.0
2017-Sep-18 12:30N 28°09' W 015°25'2 4.6
2017-Sep-18 12:00N 28°06' W 015°24'0 0.6
2017-Sep-18 11:21N 28°06' W 015°24'0 0.0
2017-Sep-18 11:00N 28°06' W 015°24'0 0.0
2017-Sep-18 10:21N 28°06' W 015°24'0 0.0
2017-Sep-18 09:51N 28°06' W 015°24'0 0.0
2017-Sep-18 09:24N 28°06' W 015°24'0 0.0
2017-Sep-18 08:54N 28°06' W 015°24'0 0.2
2017-Sep-18 08:30N 28°06' W 015°24'3 5.1
2017-Sep-18 07:59N 28°09' W 015°25'0 0.0
2017-Sep-18 07:29N 28°09' W 015°25'0 0.0
2017-Sep-18 06:50N 28°09' W 015°25'0 0.0
2017-Sep-18 06:17N 28°09' W 015°25'0 0.0
2017-Sep-18 05:50N 28°09' W 015°25'0 0.0
2017-Sep-18 05:08N 28°09' W 015°25'0 0.0
2017-Sep-18 04:53N 28°09' W 015°25'0 0.0
2017-Sep-18 04:23N 28°09' W 015°25'0 0.9
2017-Sep-18 04:01N 28°08' W 015°25'4 7.0
2017-Sep-18 03:31N 28°05' W 015°24'0 0.0
2017-Sep-18 03:00N 28°05' W 015°24'0 0.0
2017-Sep-18 02:30N 28°05' W 015°24'0 0.0
2017-Sep-18 02:00N 28°05' W 015°24'0 0.0
2017-Sep-18 01:30N 28°05' W 015°24'0 0.0
2017-Sep-18 01:00N 28°05' W 015°24'0 0.0
2017-Sep-18 00:30N 28°05' W 015°24'0 0.0
2017-Sep-17 23:51N 28°05' W 015°24'0 0.0
2017-Sep-17 23:21N 28°05' W 015°24'0 0.1
2017-Sep-17 23:00N 28°05' W 015°24'4 7.2
2017-Sep-17 22:30N 28°08' W 015°25'0 0.3
2017-Sep-17 21:51N 28°09' W 015°25'0 0.0
2017-Sep-17 21:21N 28°09' W 015°25'0 0.0
2017-Sep-17 20:51N 28°09' W 015°25'0 0.0
2017-Sep-17 20:18N 28°09' W 015°25'0 0.0
2017-Sep-17 19:54N 28°09' W 015°25'0 0.0
2017-Sep-17 19:24N 28°09' W 015°25'0 0.0
2017-Sep-17 18:54N 28°09' W 015°25'0 0.0
2017-Sep-17 18:24N 28°09' W 015°25'0 0.0
2017-Sep-17 17:57N 28°09' W 015°25'0 0.0
2017-Sep-17 17:27N 28°09' W 015°25'0 0.0
2017-Sep-17 16:57N 28°09' W 015°25'0 0.0
2017-Sep-17 16:27N 28°09' W 015°25'0 0.0
2017-Sep-17 15:54N 28°09' W 015°25'0 0.0
2017-Sep-17 15:27N 28°09' W 015°25'0 0.0
2017-Sep-17 15:00N 28°09' W 015°25'0 0.1
2017-Sep-17 14:30N 28°09' W 015°25'4 7.0
2017-Sep-17 14:00N 28°05' W 015°24'0 0.0
2017-Sep-17 13:21N 28°05' W 015°24'0 0.0
2017-Sep-17 12:54N 28°05' W 015°24'0 0.0
2017-Sep-17 12:24N 28°05' W 015°24'0 0.0
2017-Sep-17 11:54N 28°05' W 015°24'0 0.0
2017-Sep-17 11:24N 28°05' W 015°24'0 0.0
2017-Sep-17 10:57N 28°05' W 015°24'0 0.0
2017-Sep-17 10:27N 28°05' W 015°24'0 0.0
2017-Sep-17 09:57N 28°05' W 015°24'0 0.2
2017-Sep-17 09:30N 28°05' W 015°24'3 6.6
2017-Sep-17 09:00N 28°08' W 015°25'0 0.0
2017-Sep-17 08:18N 28°08' W 015°25'0 0.0
2017-Sep-17 07:51N 28°08' W 015°25'0 0.0
2017-Sep-17 07:21N 28°08' W 015°25'0 0.0
2017-Sep-17 06:54N 28°08' W 015°25'0 0.0
2017-Sep-17 06:24N 28°08' W 015°25'0 0.0
2017-Sep-17 05:54N 28°08' W 015°25'0 0.0
2017-Sep-17 05:24N 28°08' W 015°25'0 0.0
2017-Sep-17 04:54N 28°08' W 015°25'0 0.0
2017-Sep-17 04:27N 28°08' W 015°25'0 0.0
2017-Sep-17 03:57N 28°08' W 015°25'0 0.0
2017-Sep-17 03:27N 28°08' W 015°25'0 0.0
2017-Sep-17 02:57N 28°08' W 015°25'0 0.0
2017-Sep-17 02:27N 28°08' W 015°25'0 0.0
2017-Sep-17 01:57N 28°08' W 015°25'0 0.0
2017-Sep-17 01:30N 28°08' W 015°25'0 0.0
2017-Sep-17 01:00N 28°08' W 015°25'0 0.0
2017-Sep-17 00:30N 28°08' W 015°25'0 0.0
2017-Sep-17 00:00N 28°08' W 015°25'1 2.5
2017-Sep-16 23:30N 28°07' W 015°25'1 2.3
2017-Sep-16 22:57N 28°08' W 015°25'0 0.0
2017-Sep-16 22:27N 28°08' W 015°25'0 0.0
2017-Sep-16 21:57N 28°08' W 015°25'0 0.0
2017-Sep-16 21:27N 28°08' W 015°25'0 0.0
2017-Sep-16 21:00N 28°08' W 015°25'0 0.0
2017-Sep-16 20:30N 28°08' W 015°25'0 0.0
2017-Sep-16 19:57N 28°08' W 015°25'0 0.0
2017-Sep-16 19:30N 28°08' W 015°25'0 0.0
2017-Sep-16 19:00N 28°08' W 015°25'0 0.0
2017-Sep-16 18:30N 28°08' W 015°25'0 0.8
2017-Sep-16 18:00N 28°08' W 015°25'1 1.0
2017-Sep-16 17:30N 28°07' W 015°25'0 0.0
2017-Sep-16 17:01N 28°07' W 015°25'0 0.0
2017-Sep-16 16:31N 28°07' W 015°25'0 0.0
2017-Sep-16 16:00N 28°07' W 015°25'0 0.0
2017-Sep-16 15:30N 28°07' W 015°25'0 0.0
2017-Sep-16 15:00N 28°07' W 015°25'0 0.0
2017-Sep-16 14:30N 28°07' W 015°25'0 0.0
2017-Sep-16 14:00N 28°07' W 015°25'0 0.0
2017-Sep-16 13:30N 28°07' W 015°25'0 0.0
2017-Sep-16 13:00N 28°07' W 015°25'0 0.0
2017-Sep-16 12:30N 28°07' W 015°25'0 0.0
2017-Sep-16 12:00N 28°07' W 015°25'0 0.0
2017-Sep-16 11:30N 28°07' W 015°25'0 0.0
2017-Sep-16 11:00N 28°07' W 015°25'0 0.0
2017-Sep-16 10:30N 28°07' W 015°25'0 0.0
2017-Sep-16 10:00N 28°07' W 015°25'0 0.0
2017-Sep-16 09:30N 28°07' W 015°25'0 0.0
2017-Sep-16 09:00N 28°07' W 015°25'0 0.0
2017-Sep-16 08:30N 28°07' W 015°25'0 0.1
2017-Sep-16 08:00N 28°07' W 015°25'0 0.2
2017-Sep-16 07:30N 28°07' W 015°25'1 1.6
2017-Sep-16 06:52N 28°08' W 015°25'0 0.0
2017-Sep-16 06:22N 28°08' W 015°25'0 0.0
2017-Sep-16 05:52N 28°08' W 015°25'  
Track history (hours):
 
Tides and Currents Weather Stations Pressure Air Temp Water Temp Dewpoint Dewpoint Depression Visibility Wind Speed Wind Dir Waves Ship Positions

Mykonos

Last reported at 2017-Sep-26 05:34 UTC. Time now 2017-Sep-26 11:08 UTC.
Position N 36°05' W 005°14'.

Length 91 m; draft 4.5 m.

Type: Tanker. MMSI: 236502000.

Date/timePositionNaut miles runAvg speedWind from/ knotsBaromVisibWave heightAir tempDewpointWater temp
2017-Sep-26 05:34N 36°05' W 005°14'0 1.6
2017-Sep-26 05:30N 36°05' W 005°14'3 6.6
2017-Sep-26 05:00N 36°05' W 005°18'5 4.6
2017-Sep-26 03:52N 36°09' W 005°22'3 5.3
2017-Sep-26 03:15N 36°05' W 005°22'3 7.4
2017-Sep-26 02:53N 36°03' W 005°21'3 9.2
2017-Sep-26 02:30N 35°60' W 005°20'612.8
2017-Sep-26 02:00N 35°58' W 005°28'299 9.9
2017-Sep-24 19:41N 32°44' W 010°04'2 9.5
2017-Sep-24 19:30N 32°43' W 010°06'11 9.5
2017-Sep-24 18:20N 32°35' W 010°15'4 9.7
2017-Sep-24 17:56N 32°32' W 010°18'10 9.7
2017-Sep-24 16:56N 32°25' W 010°26'5 9.5
2017-Sep-24 16:26N 32°22' W 010°30'4 9.6
2017-Sep-24 16:00N 32°19' W 010°34'39 9.4
2017-Sep-24 11:50N 31°48' W 011°02'29 9.1
2017-Sep-24 08:39N 31°28' W 011°27'3 8.9
2017-Sep-24 08:21N 31°26' W 011°29'9 9.1
2017-Sep-24 07:23N 31°20' W 011°36'10 9.0
2017-Sep-24 06:20N 31°13' W 011°45'3 9.2
2017-Sep-24 06:00N 31°11' W 011°47'7 9.5
2017-Sep-24 05:16N 31°06' W 011°53'3 9.4
2017-Sep-24 05:00N 31°04' W 011°55'6 9.6
2017-Sep-24 04:21N 31°00' W 012°00'3 9.4
2017-Sep-24 03:59N 30°58' W 012°03'5 9.1
2017-Sep-24 03:28N 30°54' W 012°07'8 8.8
2017-Sep-24 02:31N 30°48' W 012°14'0 8.7
2017-Sep-24 02:30N 30°48' W 012°14'5 8.9
2017-Sep-24 01:58N 30°45' W 012°18'4 9.0
2017-Sep-24 01:30N 30°42' W 012°21'4 8.7
2017-Sep-24 01:00N 30°39' W 012°25'4 8.4
2017-Sep-24 00:30N 30°36' W 012°28'4 8.4
2017-Sep-23 23:59N 30°33' W 012°32'5 8.2
2017-Sep-23 23:26N 30°30' W 012°36'7 8.1
2017-Sep-23 22:35N 30°25' W 012°41'1 7.7
2017-Sep-23 22:27N 30°24' W 012°42'4 7.9
2017-Sep-23 22:00N 30°22' W 012°45'5 7.9
2017-Sep-23 21:19N 30°18' W 012°50'3 7.7
2017-Sep-23 20:55N 30°16' W 012°52'9 7.4
2017-Sep-23 19:46N 30°10' W 012°59'176 4.2
2017-Sep-22 01:42N 28°08' W 015°25'0 0.0
2017-Sep-22 01:24N 28°08' W 015°25'0 0.0
2017-Sep-22 00:54N 28°08' W 015°25'0 0.0
2017-Sep-22 00:27N 28°08' W 015°25'0 0.0
2017-Sep-21 23:57N 28°08' W 015°25'0 0.0
2017-Sep-21 23:30N 28°08' W 015°25'0 0.0
2017-Sep-21 23:00N 28°08' W 015°25'0 0.0
2017-Sep-21 22:27N 28°08' W 015°25'0 0.0
2017-Sep-21 21:57N 28°08' W 015°25'0 0.0
2017-Sep-21 21:30N 28°08' W 015°25'0 0.0
2017-Sep-21 21:00N 28°08' W 015°25'0 0.0
2017-Sep-21 20:27N 28°08' W 015°25'0 0.0
2017-Sep-21 20:00N 28°08' W 015°25'0 0.0
2017-Sep-21 19:30N 28°08' W 015°25'0 0.0
2017-Sep-21 19:00N 28°08' W 015°25'0 0.0
2017-Sep-21 18:18N 28°08' W 015°25'0 0.0
2017-Sep-21 18:00N 28°08' W 015°25'0 0.0
2017-Sep-21 17:30N 28°08' W 015°25'0 0.0
2017-Sep-21 16:51N 28°08' W 015°25'0 0.0
2017-Sep-21 16:21N 28°08' W 015°25'0 0.0
2017-Sep-21 15:51N 28°08' W 015°25'0 0.0
2017-Sep-21 15:21N 28°08' W 015°25'0 0.0
2017-Sep-21 14:54N 28°08' W 015°25'0 0.1
2017-Sep-21 14:30N 28°08' W 015°25'0 0.7
2017-Sep-21 13:49N 28°09' W 015°25'0 0.0
2017-Sep-21 13:19N 28°09' W 015°25'0 0.0
2017-Sep-21 12:52N 28°09' W 015°25'0 0.0
2017-Sep-21 12:22N 28°09' W 015°25'0 0.0
2017-Sep-21 11:52N 28°09' W 015°25'0 0.0
2017-Sep-21 11:22N 28°09' W 015°25'0 0.0
2017-Sep-21 10:49N 28°09' W 015°25'0 0.0
2017-Sep-21 10:22N 28°09' W 015°25'0 0.0
2017-Sep-21 09:55N 28°09' W 015°25'0 0.0
2017-Sep-21 09:25N 28°09' W 015°25'0 0.0
2017-Sep-21 08:40N 28°09' W 015°25'0 0.0
2017-Sep-21 08:25N 28°09' W 015°25'0 0.0
2017-Sep-21 07:55N 28°09' W 015°25'0 0.0
2017-Sep-21 07:28N 28°09' W 015°25'0 0.0
2017-Sep-21 06:58N 28°09' W 015°25'0 0.0
2017-Sep-21 06:28N 28°09' W 015°25'0 0.0
2017-Sep-21 05:55N 28°09' W 015°25'0 0.0
2017-Sep-21 05:28N 28°09' W 015°25'0 0.0
2017-Sep-21 04:43N 28°09' W 015°25'0 0.0
2017-Sep-21 04:25N 28°09' W 015°25'0 0.0
2017-Sep-21 04:01N 28°09' W 015°25'0 0.0
2017-Sep-21 03:31N 28°09' W 015°25'0 0.0
2017-Sep-21 03:01N 28°09' W 015°25'0 0.0
2017-Sep-21 02:16N 28°09' W 015°25'0 0.0
2017-Sep-21 01:58N 28°09' W 015°25'0 0.0
2017-Sep-21 01:19N 28°09' W 015°25'0 0.0
2017-Sep-21 01:01N 28°09' W 015°25'0 0.0
2017-Sep-21 00:31N 28°09' W 015°25'0 0.0
2017-Sep-21 00:01N 28°09' W 015°25'0 0.0
2017-Sep-20 23:31N 28°09' W 015°25'0 0.0
2017-Sep-20 23:01N 28°09' W 015°25'0 0.0
2017-Sep-20 22:22N 28°09' W 015°25'0 0.0
2017-Sep-20 21:52N 28°09' W 015°25'0 0.0
2017-Sep-20 21:31N 28°09' W 015°25'0 0.0
2017-Sep-20 20:52N 28°09' W 015°25'0 0.0
2017-Sep-20 20:22N 28°09' W 015°25'0 0.0
2017-Sep-20 19:52N 28°09' W 015°25'0 0.0
2017-Sep-20 19:25N 28°09' W 015°25'0 0.0
2017-Sep-20 18:55N 28°09' W 015°25'0 0.0
2017-Sep-20 18:25N 28°09' W 015°25'0 0.0
2017-Sep-20 17:55N 28°09' W 015°25'0 0.0
2017-Sep-20 17:25N 28°09' W 015°25'0 0.1
2017-Sep-20 17:00N 28°09' W 015°25'3 6.3
2017-Sep-20 16:30N 28°06' W 015°24'0 0.0
2017-Sep-20 15:57N 28°06' W 015°24'0 0.0
2017-Sep-20 15:24N 28°06' W 015°24'0 0.0
2017-Sep-20 14:57N 28°06' W 015°24'0 0.0
2017-Sep-20 14:00N 28°06' W 015°24'0 0.0
2017-Sep-20 13:30N 28°06' W 015°24'0 0.1
2017-Sep-20 13:00N 28°06' W 015°24'0 0.0
2017-Sep-20 12:30N 28°06' W 015°24'0 0.0
2017-Sep-20 12:00N 28°06' W 015°24'0 0.0
2017-Sep-20 11:30N 28°06' W 015°24'3 5.1
2017-Sep-20 11:01N 28°08' W 015°25'0 0.5
2017-Sep-20 10:28N 28°08' W 015°25'0 0.0
2017-Sep-20 09:58N 28°08' W 015°25'0 0.0
2017-Sep-20 09:28N 28°08' W 015°25'0 0.0
2017-Sep-20 08:58N 28°08' W 015°25'0 0.0
2017-Sep-20 08:28N 28°08' W 015°25'0 0.0
2017-Sep-20 07:49N 28°08' W 015°25'0 0.0
2017-Sep-20 07:19N 28°08' W 015°25'0 0.0
2017-Sep-20 06:49N 28°08' W 015°25'0 0.0
2017-Sep-20 06:16N 28°08' W 015°25'0 0.0
2017-Sep-20 05:49N 28°08' W 015°25'0 0.0
2017-Sep-20 05:22N 28°08' W 015°25'0 0.0
2017-Sep-20 04:52N 28°08' W 015°25'0 0.0
2017-Sep-20 04:22N 28°08' W 015°25'0 0.0
2017-Sep-20 03:52N 28°08' W 015°25'0 0.0
2017-Sep-20 03:22N 28°08' W 015°25'0 0.0
2017-Sep-20 02:52N 28°08' W 015°25'0 0.0
2017-Sep-20 02:25N 28°08' W 015°25'0 0.0
2017-Sep-20 01:52N 28°08' W 015°25'0 0.0
2017-Sep-20 01:22N 28°08' W 015°25'0 0.0
2017-Sep-20 01:00N 28°08' W 015°25'0 0.7
2017-Sep-20 00:22N 28°09' W 015°25'0 0.0
2017-Sep-19 23:52N 28°09' W 015°25'0 0.0
2017-Sep-19 23:22N 28°09' W 015°25'0 0.0
2017-Sep-19 22:49N 28°09' W 015°25'0 0.0
2017-Sep-19 22:26N 28°09' W 015°25'0 1.0
2017-Sep-19 21:58N 28°08' W 015°25'0 0.0
2017-Sep-19 21:28N 28°08' W 015°25'0 0.0
2017-Sep-19 20:46N 28°08' W 015°25'0 0.0
2017-Sep-19 20:28N 28°08' W 015°25'0 0.0
2017-Sep-19 19:54N 28°08' W 015°25'1 1.6
2017-Sep-19 19:30N 28°08' W 015°25'1 1.9
2017-Sep-19 18:51N 28°08' W 015°24'0 0.0
2017-Sep-19 18:30N 28°08' W 015°24'0 0.0
2017-Sep-19 18:00N 28°08' W 015°24'0 0.0
2017-Sep-19 17:21N 28°08' W 015°24'0 0.0
2017-Sep-19 16:51N 28°08' W 015°24'0 0.0
2017-Sep-19 16:24N 28°08' W 015°24'0 0.0
2017-Sep-19 15:54N 28°08' W 015°24'0 0.0
2017-Sep-19 15:24N 28°08' W 015°24'0 0.0
2017-Sep-19 14:54N 28°08' W 015°24'0 0.0
2017-Sep-19 14:24N 28°08' W 015°24'0 0.0
2017-Sep-19 13:51N 28°08' W 015°24'0 0.0
2017-Sep-19 13:24N 28°08' W 015°24'0 0.1
2017-Sep-19 12:54N 28°08' W 015°24'0 0.0
2017-Sep-19 12:27N 28°08' W 015°24'0 0.0
2017-Sep-19 11:57N 28°08' W 015°24'0 0.0
2017-Sep-19 11:30N 28°08' W 015°24'1 2.2
2017-Sep-19 11:00N 28°07' W 015°25'0 0.3
2017-Sep-19 10:29N 28°08' W 015°25'0 0.1
2017-Sep-19 09:29N 28°07' W 015°25'0 0.1
2017-Sep-19 08:59N 28°07' W 015°25'0 0.0
2017-Sep-19 08:29N 28°07' W 015°25'0 0.2
2017-Sep-19 08:01N 28°07' W 015°25'1 1.7
2017-Sep-19 07:19N 28°09' W 015°25'0 0.0
2017-Sep-19 06:49N 28°09' W 015°25'0 0.0
2017-Sep-19 06:22N 28°09' W 015°25'0 0.0
2017-Sep-19 05:55N 28°09' W 015°25'0 0.0
2017-Sep-19 05:25N 28°09' W 015°25'0 0.0
2017-Sep-19 04:55N 28°09' W 015°25'0 0.0
2017-Sep-19 04:25N 28°09' W 015°25'0 0.0
2017-Sep-19 03:55N 28°09' W 015°25'0 0.0
2017-Sep-19 03:25N 28°09' W 015°25'0 0.0
2017-Sep-19 02:58N 28°09' W 015°25'0 0.0
2017-Sep-19 02:28N 28°09' W 015°25'0 0.0
2017-Sep-19 01:58N 28°09' W 015°25'0 0.0
2017-Sep-19 01:10N 28°09' W 015°25'0 0.0
2017-Sep-19 01:00N 28°09' W 015°25'3 5.7
2017-Sep-19 00:30N 28°06' W 015°24'0 0.5
2017-Sep-18 23:54N 28°06' W 015°24'0 0.0
2017-Sep-18 23:24N 28°06' W 015°24'0 0.0
2017-Sep-18 22:54N 28°06' W 015°24'0 0.0
2017-Sep-18 22:24N 28°06' W 015°24'0 0.0
2017-Sep-18 21:57N 28°06' W 015°24'0 0.1
2017-Sep-18 21:21N 28°06' W 015°24'0 0.0
2017-Sep-18 20:57N 28°06' W 015°24'0 0.1
2017-Sep-18 20:27N 28°06' W 015°24'0 0.1
2017-Sep-18 19:57N 28°06' W 015°24'0 0.1
2017-Sep-18 19:27N 28°06' W 015°24'0 0.1
2017-Sep-18 19:00N 28°06' W 015°24'0 0.0
2017-Sep-18 18:30N 28°06' W 015°24'0 0.0
2017-Sep-18 18:00N 28°06' W 015°24'0 0.1
2017-Sep-18 17:30N 28°06' W 015°24'0 0.2
2017-Sep-18 17:00N 28°06' W 015°24'3 6.2
2017-Sep-18 16:31N 28°09' W 015°25'0 0.2
2017-Sep-18 15:58N 28°09' W 015°25'0 0.0
2017-Sep-18 15:28N 28°09' W 015°25'0 0.0
2017-Sep-18 14:49N 28°09' W 015°25'0 0.0
2017-Sep-18 14:19N 28°09' W 015°25'0 0.0
2017-Sep-18 13:49N 28°09' W 015°25'0 0.0
2017-Sep-18 13:22N 28°09' W 015°25'0 0.0
2017-Sep-18 12:52N 28°09' W 015°25'0 0.0
2017-Sep-18 12:30N 28°09' W 015°25'2 4.6
2017-Sep-18 12:00N 28°06' W 015°24'0 0.6
2017-Sep-18 11:21N 28°06' W 015°24'0 0.0
2017-Sep-18 11:00N 28°06' W 015°24'0 0.0
2017-Sep-18 10:21N 28°06' W 015°24'0 0.0
2017-Sep-18 09:51N 28°06' W 015°24'0 0.0
2017-Sep-18 09:24N 28°06' W 015°24'0 0.0
2017-Sep-18 08:54N 28°06' W 015°24'0 0.2
2017-Sep-18 08:30N 28°06' W 015°24'3 5.1
2017-Sep-18 07:59N 28°09' W 015°25'0 0.0
2017-Sep-18 07:29N 28°09' W 015°25'0 0.0
2017-Sep-18 06:50N 28°09' W 015°25'0 0.0
2017-Sep-18 06:17N 28°09' W 015°25'0 0.0
2017-Sep-18 05:50N 28°09' W 015°25'0 0.0
2017-Sep-18 05:08N 28°09' W 015°25'0 0.0
2017-Sep-18 04:53N 28°09' W 015°25'0 0.0
2017-Sep-18 04:23N 28°09' W 015°25'0 0.9
2017-Sep-18 04:01N 28°08' W 015°25'4 7.0
2017-Sep-18 03:31N 28°05' W 015°24'0 0.0
2017-Sep-18 03:00N 28°05' W 015°24'0 0.0
2017-Sep-18 02:30N 28°05' W 015°24'0 0.0
2017-Sep-18 02:00N 28°05' W 015°24'0 0.0
2017-Sep-18 01:30N 28°05' W 015°24'0 0.0
2017-Sep-18 01:00N 28°05' W 015°24'0 0.0
2017-Sep-18 00:30N 28°05' W 015°24'0 0.0
2017-Sep-17 23:51N 28°05' W 015°24'0 0.0
2017-Sep-17 23:21N 28°05' W 015°24'0 0.1
2017-Sep-17 23:00N 28°05' W 015°24'4 7.2
2017-Sep-17 22:30N 28°08' W 015°25'0 0.3
2017-Sep-17 21:51N 28°09' W 015°25'0 0.0
2017-Sep-17 21:21N 28°09' W 015°25'0 0.0
2017-Sep-17 20:51N 28°09' W 015°25'0 0.0
2017-Sep-17 20:18N 28°09' W 015°25'0 0.0
2017-Sep-17 19:54N 28°09' W 015°25'0 0.0
2017-Sep-17 19:24N 28°09' W 015°25'0 0.0
2017-Sep-17 18:54N 28°09' W 015°25'0 0.0
2017-Sep-17 18:24N 28°09' W 015°25'0 0.0
2017-Sep-17 17:57N 28°09' W 015°25'0 0.0
2017-Sep-17 17:27N 28°09' W 015°25'0 0.0
2017-Sep-17 16:57N 28°09' W 015°25'0 0.0
2017-Sep-17 16:27N 28°09' W 015°25'0 0.0
2017-Sep-17 15:54N 28°09' W 015°25'0 0.0
2017-Sep-17 15:27N 28°09' W 015°25'0 0.0
2017-Sep-17 15:00N 28°09' W 015°25'0 0.1
2017-Sep-17 14:30N 28°09' W 015°25'4 7.0
2017-Sep-17 14:00N 28°05' W 015°24'0 0.0
2017-Sep-17 13:21N 28°05' W 015°24'0 0.0
2017-Sep-17 12:54N 28°05' W 015°24'0 0.0
2017-Sep-17 12:24N 28°05' W 015°24'0 0.0
2017-Sep-17 11:54N 28°05' W 015°24'0 0.0
2017-Sep-17 11:24N 28°05' W 015°24'0 0.0
2017-Sep-17 10:57N 28°05' W 015°24'0 0.0
2017-Sep-17 10:27N 28°05' W 015°24'0 0.0
2017-Sep-17 09:57N 28°05' W 015°24'0 0.2
2017-Sep-17 09:30N 28°05' W 015°24'3 6.6
2017-Sep-17 09:00N 28°08' W 015°25'0 0.0
2017-Sep-17 08:18N 28°08' W 015°25'0 0.0
2017-Sep-17 07:51N 28°08' W 015°25'0 0.0
2017-Sep-17 07:21N 28°08' W 015°25'0 0.0
2017-Sep-17 06:54N 28°08' W 015°25'0 0.0
2017-Sep-17 06:24N 28°08' W 015°25'0 0.0
2017-Sep-17 05:54N 28°08' W 015°25'0 0.0
2017-Sep-17 05:24N 28°08' W 015°25'0 0.0
2017-Sep-17 04:54N 28°08' W 015°25'0 0.0
2017-Sep-17 04:27N 28°08' W 015°25'0 0.0
2017-Sep-17 03:57N 28°08' W 015°25'0 0.0
2017-Sep-17 03:27N 28°08' W 015°25'0 0.0
2017-Sep-17 02:57N 28°08' W 015°25'0 0.0
2017-Sep-17 02:27N 28°08' W 015°25'0 0.0
2017-Sep-17 01:57N 28°08' W 015°25'0 0.0
2017-Sep-17 01:30N 28°08' W 015°25'0 0.0
2017-Sep-17 01:00N 28°08' W 015°25'0 0.0
2017-Sep-17 00:30N 28°08' W 015°25'0 0.0
2017-Sep-17 00:00N 28°08' W 015°25'1 2.5
2017-Sep-16 23:30N 28°07' W 015°25'1 2.3
2017-Sep-16 22:57N 28°08' W 015°25'0 0.0
2017-Sep-16 22:27N 28°08' W 015°25'0 0.0
2017-Sep-16 21:57N 28°08' W 015°25'0 0.0
2017-Sep-16 21:27N 28°08' W 015°25'0 0.0
2017-Sep-16 21:00N 28°08' W 015°25'0 0.0
2017-Sep-16 20:30N 28°08' W 015°25'0 0.0
2017-Sep-16 19:57N 28°08' W 015°25'0 0.0
2017-Sep-16 19:30N 28°08' W 015°25'0 0.0
2017-Sep-16 19:00N 28°08' W 015°25'0 0.0
2017-Sep-16 18:30N 28°08' W 015°25'0 0.8
2017-Sep-16 18:00N 28°08' W 015°25'1 1.0
2017-Sep-16 17:30N 28°07' W 015°25'0 0.0
2017-Sep-16 17:01N 28°07' W 015°25'0 0.0
2017-Sep-16 16:31N 28°07' W 015°25'0 0.0
2017-Sep-16 16:00N 28°07' W 015°25'0 0.0
2017-Sep-16 15:30N 28°07' W 015°25'0 0.0
2017-Sep-16 15:00N 28°07' W 015°25'0 0.0
2017-Sep-16 14:30N 28°07' W 015°25'0 0.0
2017-Sep-16 14:00N 28°07' W 015°25'0 0.0
2017-Sep-16 13:30N 28°07' W 015°25'0 0.0
2017-Sep-16 13:00N 28°07' W 015°25'0 0.0
2017-Sep-16 12:30N 28°07' W 015°25'0 0.0
2017-Sep-16 12:00N 28°07' W 015°25'0 0.0
2017-Sep-16 11:30N 28°07' W 015°25'0 0.0
2017-Sep-16 11:00N 28°07' W 015°25'0 0.0
2017-Sep-16 10:30N 28°07' W 015°25'0 0.0
2017-Sep-16 10:00N 28°07' W 015°25'0 0.0
2017-Sep-16 09:30N 28°07' W 015°25'0 0.0
2017-Sep-16 09:00N 28°07' W 015°25'0 0.0
2017-Sep-16 08:30N 28°07' W 015°25'0 0.1
2017-Sep-16 08:00N 28°07' W 015°25'0 0.2
2017-Sep-16 07:30N 28°07' W 015°25'1 1.6
2017-Sep-16 06:52N 28°08' W 015°25'0 0.0
2017-Sep-16 06:22N 28°08' W 015°25'0 0.0
2017-Sep-16 05:52N 28°08' W 015°25'  

Dump ship's entire track history